createdAt,value
2024-04-06T00:00:43.392Z,97671.02
2024-04-06T00:03:31.271Z,97665.26
2024-04-06T00:05:59.584Z,97659.80
2024-04-06T00:08:27.887Z,97658.16
2024-04-06T00:10:55.835Z,97656.75
2024-04-06T00:13:23.576Z,97651.63
2024-04-06T00:15:51.565Z,97655.07
2024-04-06T00:18:19.358Z,97660.95
2024-04-06T00:20:47.302Z,97666.68
2024-04-06T00:23:15.238Z,97663.97
2024-04-06T00:25:43.267Z,97664.85
2024-04-06T00:28:11.064Z,97661.21
2024-04-06T00:30:38.934Z,97657.63
2024-04-06T00:33:06.715Z,97652.44
2024-04-06T00:35:34.601Z,97645.90
2024-04-06T00:38:02.422Z,97640.90
2024-04-06T00:40:30.244Z,97646.64
2024-04-06T00:42:58.000Z,97652.55
2024-04-06T00:45:25.966Z,97650.28
2024-04-06T00:47:54.282Z,97648.91
2024-04-06T00:50:22.768Z,97654.60
2024-04-06T00:52:50.608Z,97654.45
2024-04-06T00:55:18.949Z,97648.48
2024-04-06T00:57:47.534Z,97641.09
2024-04-06T01:00:15.898Z,97645.23
2024-04-06T01:02:43.833Z,97647.85
2024-04-06T01:05:11.908Z,97651.05
2024-04-06T01:07:43.753Z,97654.11
2024-04-06T01:10:11.723Z,97653.12
2024-04-06T01:12:39.812Z,97652.80
2024-04-06T01:15:08.041Z,97653.19
2024-04-06T01:17:36.152Z,97651.43
2024-04-06T01:20:07.985Z,97652.44
2024-04-06T01:22:35.924Z,97660.95
2024-04-06T01:25:05.489Z,97666.36
2024-04-06T01:27:33.397Z,97669.58
2024-04-06T01:30:02.092Z,97672.52
2024-04-06T01:32:29.912Z,97670.38
2024-04-06T01:34:58.211Z,97666.51
2024-04-06T01:37:26.081Z,97666.06
2024-04-06T01:39:53.841Z,97661.05
2024-04-06T01:42:21.610Z,97650.02
2024-04-06T01:44:49.419Z,97649.16
2024-04-06T01:47:17.213Z,97645.98
2024-04-06T01:49:45.084Z,97643.58
2024-04-06T01:52:12.914Z,97639.88
2024-04-06T01:54:41.092Z,97631.00
2024-04-06T01:57:09.066Z,97622.42
2024-04-06T01:59:40.315Z,97623.92
2024-04-06T02:02:08.196Z,97621.56
2024-04-06T02:04:36.299Z,97618.39
2024-04-06T02:07:05.802Z,97615.33
2024-04-06T02:09:33.912Z,97619.66
2024-04-06T02:12:01.836Z,97620.14
2024-04-06T02:14:29.678Z,97620.98
2024-04-06T02:16:57.674Z,97620.70
2024-04-06T02:19:25.416Z,97618.48
2024-04-06T02:21:53.260Z,97619.04
2024-04-06T02:24:21.484Z,97613.94
2024-04-06T02:26:49.899Z,97611.44
2024-04-06T02:29:19.489Z,97611.66
2024-04-06T02:31:47.745Z,97617.94
2024-04-06T02:34:15.628Z,97617.25
2024-04-06T02:36:43.473Z,97615.80
2024-04-06T02:39:11.707Z,97609.06
2024-04-06T02:41:39.739Z,97604.80
2024-04-06T02:44:07.703Z,97598.50
2024-04-06T02:46:35.550Z,97599.11
2024-04-06T02:49:03.342Z,97600.95
2024-04-06T02:51:31.341Z,97604.63
2024-04-06T02:53:59.100Z,97610.71
2024-04-06T02:56:26.966Z,97613.65
2024-04-06T02:58:54.883Z,97611.05
2024-04-06T03:01:22.698Z,97603.12
2024-04-06T03:03:50.543Z,97591.03
2024-04-06T03:06:18.286Z,97587.11
2024-04-06T03:08:46.062Z,97598.05
2024-04-06T03:11:14.017Z,97602.63
2024-04-06T03:13:41.795Z,97601.48
2024-04-06T03:16:09.545Z,97604.58
2024-04-06T03:18:37.459Z,97603.16
2024-04-06T03:21:05.750Z,97594.84
2024-04-06T03:23:33.644Z,97592.10
2024-04-06T03:26:01.473Z,97593.22
2024-04-06T03:28:30.251Z,97595.75
2024-04-06T03:31:00.010Z,97598.44
2024-04-06T03:33:27.852Z,97595.86
2024-04-06T03:35:56.048Z,97599.02
2024-04-06T03:38:23.861Z,97601.65
2024-04-06T03:40:51.720Z,97602.23
2024-04-06T03:43:19.615Z,97601.34
2024-04-06T03:45:48.240Z,97606.25
2024-04-06T03:48:15.992Z,97607.45
2024-04-06T03:50:43.879Z,97603.50
2024-04-06T03:53:12.530Z,97606.48
2024-04-06T03:55:40.733Z,97607.83
2024-04-06T03:58:09.108Z,97606.42
2024-04-06T04:00:37.387Z,97613.08
2024-04-06T04:03:05.517Z,97615.08
2024-04-06T04:05:33.602Z,97614.59
2024-04-06T04:08:01.501Z,97614.18
2024-04-06T04:10:29.507Z,97615.03
2024-04-06T04:12:58.897Z,97614.24
2024-04-06T04:15:26.726Z,97615.94
2024-04-06T04:17:55.041Z,97617.06
2024-04-06T04:20:22.812Z,97617.79
2024-04-06T04:22:50.969Z,97622.23
2024-04-06T04:25:18.731Z,97627.98
2024-04-06T04:27:46.901Z,97634.80
2024-04-06T04:30:16.853Z,97637.96
2024-04-06T04:32:44.815Z,97634.91
2024-04-06T04:35:12.968Z,97634.50
2024-04-06T04:37:40.799Z,97634.42
2024-04-06T04:40:09.650Z,97640.45
2024-04-06T04:42:38.598Z,97641.21
2024-04-06T04:45:14.939Z,97644.45
2024-04-06T04:47:43.377Z,97649.21
2024-04-06T04:50:11.333Z,97649.36
2024-04-06T04:52:39.279Z,97645.97
2024-04-06T04:55:07.276Z,97644.13
2024-04-06T04:57:35.219Z,97643.33
2024-04-06T05:00:04.073Z,97650.74
2024-04-06T05:02:32.066Z,97651.81
2024-04-06T05:05:00.195Z,97651.28
2024-04-06T05:07:28.485Z,97648.23
2024-04-06T05:09:56.305Z,97648.54
2024-04-06T05:12:24.173Z,97649.77
2024-04-06T05:14:52.142Z,97642.45
2024-04-06T05:17:19.988Z,97635.19
2024-04-06T05:19:47.769Z,97630.50
2024-04-06T05:22:15.800Z,97624.86
2024-04-06T05:24:43.859Z,97623.19
2024-04-06T05:27:12.123Z,97626.66
2024-04-06T05:29:39.962Z,97628.72
2024-04-06T05:32:07.804Z,97632.54
2024-04-06T05:34:35.734Z,97634.50
2024-04-06T05:37:03.747Z,97638.32
2024-04-06T05:39:31.603Z,97639.80
2024-04-06T05:41:59.484Z,97633.28
2024-04-06T05:44:27.322Z,97626.98
2024-04-06T05:46:55.433Z,97626.69
2024-04-06T05:49:23.361Z,97623.90
2024-04-06T05:51:51.139Z,97622.52
2024-04-06T05:54:18.976Z,97627.19
2024-04-06T05:56:47.279Z,97626.02
2024-04-06T05:59:15.461Z,97625.39
2024-04-06T06:01:43.224Z,97619.39
2024-04-06T06:04:11.647Z,97618.95
2024-04-06T06:06:39.474Z,97625.95
2024-04-06T06:09:07.249Z,97628.14
2024-04-06T06:11:35.030Z,97630.80
2024-04-06T06:14:02.927Z,97632.30
2024-04-06T06:16:30.843Z,97633.02
2024-04-06T06:18:58.770Z,97629.09
2024-04-06T06:21:26.451Z,97625.00
2024-04-06T06:23:54.729Z,97619.97
2024-04-06T06:26:22.446Z,97619.31
2024-04-06T06:28:50.325Z,97623.09
2024-04-06T06:31:18.130Z,97624.81
2024-04-06T06:33:45.881Z,97629.84
2024-04-06T06:41:17.125Z,97629.86
2024-04-06T06:43:44.987Z,97629.16
2024-04-06T06:46:12.980Z,97630.56
2024-04-06T06:48:40.872Z,97632.53
2024-04-06T06:51:08.651Z,97636.31
2024-04-06T06:53:36.501Z,97636.38
2024-04-06T06:56:04.627Z,97637.80
2024-04-06T06:58:32.773Z,97638.84
2024-04-06T07:01:00.642Z,97637.10
2024-04-06T07:03:28.458Z,97631.85
2024-04-06T07:05:56.713Z,97630.84
2024-04-06T07:08:24.831Z,97633.48
2024-04-06T07:10:52.920Z,97637.81
2024-04-06T07:13:20.841Z,97637.55
2024-04-06T07:15:48.618Z,97633.62
2024-04-06T07:18:16.406Z,97631.16
2024-04-06T07:20:44.233Z,97628.94
2024-04-06T07:23:12.123Z,97630.60
2024-04-06T07:25:39.856Z,97628.67
2024-04-06T07:28:07.831Z,97629.14
2024-04-06T07:30:36.070Z,97634.35
2024-04-06T07:33:04.107Z,97623.55
2024-04-06T07:35:32.028Z,97620.46
2024-04-06T07:37:59.892Z,97619.63
2024-04-06T07:40:27.783Z,97621.27
2024-04-06T07:42:55.644Z,97613.41
2024-04-06T07:45:23.396Z,97606.00
2024-04-06T07:47:52.875Z,97604.89
2024-04-06T07:50:20.848Z,97606.42
2024-04-06T07:52:49.064Z,97604.29
2024-04-06T07:55:17.233Z,97600.39
2024-04-06T07:57:45.892Z,97599.66
2024-04-06T08:00:14.868Z,97598.30
2024-04-06T08:02:43.079Z,97597.94
2024-04-06T08:05:10.866Z,97599.15
2024-04-06T08:07:38.829Z,97600.22
2024-04-06T08:10:17.999Z,97606.48
2024-04-06T08:12:46.721Z,97605.83
2024-04-06T08:15:15.633Z,97600.95
2024-04-06T08:17:54.875Z,97602.40
2024-04-06T08:20:22.823Z,97602.92
2024-04-06T08:22:50.532Z,97602.14
2024-04-06T08:25:18.323Z,97604.29
2024-04-06T08:27:46.708Z,97605.87
2024-04-06T08:30:15.297Z,97604.11
2024-04-06T08:32:44.571Z,97604.47
2024-04-06T08:35:20.996Z,97599.86
2024-04-06T08:37:48.935Z,97593.95
2024-04-06T08:40:17.526Z,97587.57
2024-04-06T08:42:46.029Z,97582.38
2024-04-06T08:45:14.046Z,97581.73
2024-04-06T08:47:42.719Z,97579.48
2024-04-06T08:50:11.807Z,97579.11
2024-04-06T08:52:40.455Z,97578.70
2024-04-06T08:55:10.182Z,97578.30
2024-04-06T08:57:40.565Z,97576.98
2024-04-06T09:00:11.112Z,97571.71
2024-04-06T09:02:39.755Z,97569.83
2024-04-06T09:05:07.867Z,97570.80
2024-04-06T09:07:35.982Z,97568.11
2024-04-06T09:10:04.103Z,97568.33
2024-04-06T09:12:31.937Z,97567.14
2024-04-06T09:15:00.946Z,97568.34
2024-04-06T09:17:30.373Z,97566.83
2024-04-06T09:19:58.248Z,97565.23
2024-04-06T09:22:26.173Z,97564.94
2024-04-06T09:24:55.669Z,97560.95
2024-04-06T09:27:23.540Z,97562.92
2024-04-06T09:29:51.451Z,97569.36
2024-04-06T09:32:24.644Z,97575.86
2024-04-06T09:34:54.134Z,97578.80
2024-04-06T09:37:37.146Z,97584.34
2024-04-06T09:40:08.136Z,97597.48
2024-04-06T09:42:37.607Z,97604.71
2024-04-06T09:45:07.043Z,97618.89
2024-04-06T09:47:36.202Z,97638.16
2024-04-06T09:50:05.407Z,97656.48
2024-04-06T09:52:33.612Z,97676.67
2024-04-06T09:55:03.265Z,97677.34
2024-04-06T09:57:31.412Z,97676.21
2024-04-06T10:00:05.613Z,97678.61
2024-04-06T10:02:34.856Z,97680.94
2024-04-06T10:05:07.005Z,97681.70
2024-04-06T10:07:35.736Z,97679.09
2024-04-06T10:10:05.533Z,97677.90
2024-04-06T10:12:44.716Z,97680.48
2024-04-06T10:15:13.393Z,97679.27
2024-04-06T10:17:53.665Z,97676.64
2024-04-06T10:20:25.494Z,97677.20
2024-04-06T10:23:00.608Z,97678.17
2024-04-06T10:25:37.919Z,97674.77
2024-04-06T10:28:10.875Z,97669.21
2024-04-06T10:30:40.036Z,97669.08
2024-04-06T10:33:08.619Z,97669.34
2024-04-06T10:35:36.947Z,97669.02
2024-04-06T10:38:07.659Z,97668.76
2024-04-06T10:40:36.722Z,97662.76
2024-04-06T10:43:07.256Z,97658.59
2024-04-06T10:45:35.206Z,97656.69
2024-04-06T10:48:03.910Z,97657.95
2024-04-06T10:50:32.319Z,97659.23
2024-04-06T10:53:01.492Z,97656.47
2024-04-06T10:55:29.926Z,97654.13
2024-04-06T10:57:57.730Z,97649.80
2024-04-06T11:00:27.576Z,97649.86
2024-04-06T11:03:02.301Z,97649.99
2024-04-06T11:05:31.223Z,97645.94
2024-04-06T11:07:59.052Z,97642.05
2024-04-06T11:10:27.916Z,97638.34
2024-04-06T11:12:57.296Z,97637.29
2024-04-06T11:15:27.129Z,97635.17
2024-04-06T11:17:55.935Z,97633.95
2024-04-06T11:20:24.556Z,97625.58
2024-04-06T11:22:52.467Z,97617.34
2024-04-06T11:25:21.488Z,97611.94
2024-04-06T11:27:51.019Z,97607.77
2024-04-06T11:30:20.508Z,97607.19
2024-04-06T11:32:53.162Z,97602.96
2024-04-06T11:35:21.053Z,97594.98
2024-04-06T11:37:48.775Z,97585.59
2024-04-06T11:40:16.699Z,97578.45
2024-04-06T11:42:44.512Z,97572.16
2024-04-06T11:45:12.336Z,97562.63
2024-04-06T11:47:42.378Z,97554.98
2024-04-06T11:50:10.534Z,97552.04
2024-04-06T11:52:39.914Z,97549.96
2024-04-06T11:55:07.855Z,97545.95
2024-04-06T11:57:36.355Z,97540.00
2024-04-06T12:00:07.122Z,97537.73
2024-04-06T12:02:35.148Z,97533.86
2024-04-06T12:05:03.035Z,97524.23
2024-04-06T12:07:31.566Z,97518.98
2024-04-06T12:09:59.979Z,97516.61
2024-04-06T12:12:27.876Z,97512.71
2024-04-06T12:14:55.727Z,97515.54
2024-04-06T12:17:28.396Z,97518.21
2024-04-06T12:19:56.493Z,97523.97
2024-04-06T12:22:24.760Z,97517.84
2024-04-06T12:24:53.405Z,97520.50
2024-04-06T12:27:21.489Z,97519.43
2024-04-06T12:29:50.340Z,97520.00
2024-04-06T12:32:18.390Z,97520.39
2024-04-06T12:34:46.255Z,97512.48
2024-04-06T12:37:15.319Z,97512.27
2024-04-06T12:39:43.640Z,97510.35
2024-04-06T12:42:11.630Z,97510.58
2024-04-06T12:44:39.546Z,97513.09
2024-04-06T12:47:07.394Z,97511.06
2024-04-06T12:49:35.266Z,97510.44
2024-04-06T12:52:03.326Z,97503.50
2024-04-06T12:54:33.077Z,97503.10
2024-04-06T12:57:19.877Z,97499.61
2024-04-06T12:59:47.694Z,97493.84
2024-04-06T13:02:15.538Z,97490.38
2024-04-06T13:04:43.422Z,97491.80
2024-04-06T13:07:11.356Z,97487.41
2024-04-06T13:09:39.284Z,97485.02
2024-04-06T13:12:07.318Z,97482.42
2024-04-06T13:14:35.227Z,97479.67
2024-04-06T13:17:03.015Z,97482.30
2024-04-06T13:19:30.986Z,97484.10
2024-04-06T13:21:59.290Z,97491.88
2024-04-06T13:24:27.114Z,97492.78
2024-04-06T13:26:54.944Z,97492.75
2024-04-06T13:29:23.251Z,97494.02
2024-04-06T13:31:53.931Z,97491.39
2024-04-06T13:34:22.836Z,97488.27
2024-04-06T13:36:50.634Z,97485.52
2024-04-06T13:39:21.043Z,97482.80
2024-04-06T13:41:48.842Z,97483.73
2024-04-06T13:44:16.834Z,97485.38
2024-04-06T13:46:44.643Z,97482.16
2024-04-06T13:49:12.706Z,97480.46
2024-04-06T13:51:40.995Z,97475.70
2024-04-06T13:54:08.872Z,97471.48
2024-04-06T13:56:36.712Z,97471.33
2024-04-06T13:59:04.638Z,97468.70
2024-04-06T14:01:32.555Z,97465.42
2024-04-06T14:04:00.646Z,97455.08
2024-04-06T14:06:28.573Z,97452.47
2024-04-06T14:08:56.544Z,97449.37
2024-04-06T14:11:34.541Z,97447.22
2024-04-06T14:14:03.974Z,97442.98
2024-04-06T14:16:31.890Z,97441.36
2024-04-06T14:18:59.815Z,97444.81
2024-04-06T14:21:27.855Z,97444.15
2024-04-06T14:23:56.008Z,97448.25
2024-04-06T14:26:23.880Z,97446.48
2024-04-06T14:28:52.687Z,97444.16
2024-04-06T14:31:20.538Z,97440.51
2024-04-06T14:33:48.888Z,97440.11
2024-04-06T14:36:16.765Z,97441.81
2024-04-06T14:38:45.242Z,97443.64
2024-04-06T14:41:13.112Z,97444.46
2024-04-06T14:43:40.944Z,97449.56
2024-04-06T14:46:08.802Z,97451.77
2024-04-06T14:48:36.719Z,97447.09
2024-04-06T14:51:04.944Z,97443.48
2024-04-06T14:53:32.774Z,97440.10
2024-04-06T14:56:00.657Z,97435.93
2024-04-06T14:58:28.417Z,97430.83
2024-04-06T15:00:56.545Z,97431.89
2024-04-06T15:03:24.381Z,97432.52
2024-04-06T15:05:53.231Z,97433.84
2024-04-06T15:08:21.444Z,97438.25
2024-04-06T15:10:49.612Z,97439.10
2024-04-06T15:13:19.488Z,97435.21
2024-04-06T15:15:47.651Z,97432.86
2024-04-06T15:18:15.451Z,97430.83
2024-04-06T15:20:43.186Z,97435.50
2024-04-06T15:23:12.094Z,97437.45
2024-04-06T15:25:40.496Z,97439.06
2024-04-06T15:28:08.455Z,97440.79
2024-04-06T15:30:36.292Z,97444.40
2024-04-06T15:33:04.277Z,97442.64
2024-04-06T15:35:32.276Z,97442.48
2024-04-06T15:38:00.151Z,97444.36
2024-04-06T15:40:28.125Z,97448.41
2024-04-06T15:42:56.139Z,97454.29
2024-04-06T15:45:23.960Z,97458.67
2024-04-06T15:47:51.964Z,97463.16
2024-04-06T15:50:19.843Z,97466.41
2024-04-06T15:52:47.640Z,97468.46
2024-04-06T15:55:19.137Z,97470.98
2024-04-06T15:57:47.595Z,97474.63
2024-04-06T16:00:15.635Z,97479.77
2024-04-06T16:02:43.454Z,97478.04
2024-04-06T16:05:11.272Z,97476.77
2024-04-06T16:07:39.969Z,97475.53
2024-04-06T16:10:08.168Z,97473.65
2024-04-06T16:12:36.384Z,97478.99
2024-04-06T16:15:06.975Z,97484.89
2024-04-06T16:17:35.156Z,97485.14
2024-04-06T16:20:04.160Z,97485.34
2024-04-06T16:22:33.088Z,97493.68
2024-04-06T16:25:01.202Z,97494.92
2024-04-06T16:27:29.190Z,97497.88
2024-04-06T16:29:57.152Z,97496.65
2024-04-06T16:32:25.084Z,97501.98
2024-04-06T16:34:52.839Z,97502.66
2024-04-06T16:37:20.956Z,97506.41
2024-04-06T16:39:48.727Z,97509.13
2024-04-06T16:42:16.660Z,97510.46
2024-04-06T16:44:44.441Z,97505.88
2024-04-06T16:47:12.533Z,97510.48
2024-04-06T16:49:40.327Z,97510.89
2024-04-06T16:52:08.655Z,97505.16
2024-04-06T16:54:36.464Z,97500.02
2024-04-06T16:57:04.407Z,97500.27
2024-04-06T16:59:34.620Z,97496.38
2024-04-06T17:02:05.021Z,97499.18
2024-04-06T17:04:34.202Z,97501.59
2024-04-06T17:07:02.213Z,97504.95
2024-04-06T17:09:32.726Z,97509.93
2024-04-06T17:12:00.579Z,97510.98
2024-04-06T17:14:29.014Z,97500.84
2024-04-06T17:16:57.178Z,97503.85
2024-04-06T17:19:25.156Z,97505.47
2024-04-06T17:21:52.934Z,97505.65
2024-04-06T17:24:20.771Z,97506.55
2024-04-06T17:26:48.558Z,97507.98
2024-04-06T17:29:16.568Z,97511.64
2024-04-06T17:31:44.637Z,97522.98
2024-04-06T17:34:12.657Z,97532.52
2024-04-06T17:36:40.572Z,97532.25
2024-04-06T17:39:13.687Z,97534.23
2024-04-06T17:41:41.714Z,97541.59
2024-04-06T17:44:10.424Z,97540.38
2024-04-06T17:46:38.363Z,97540.38
2024-04-06T17:49:06.181Z,97538.66
2024-04-06T17:51:34.810Z,97540.80
2024-04-06T17:54:02.729Z,97543.93
2024-04-06T17:56:30.565Z,97550.40
2024-04-06T17:58:58.680Z,97555.15
2024-04-06T18:01:27.100Z,97553.53
2024-04-06T18:03:55.042Z,97558.15
2024-04-06T18:06:25.828Z,97556.48
2024-04-06T18:08:53.843Z,97559.45
2024-04-06T18:11:21.633Z,97557.90
2024-04-06T18:13:49.426Z,97561.91
2024-04-06T18:16:18.962Z,97566.10
2024-04-06T18:18:48.076Z,97570.37
2024-04-06T18:21:18.709Z,97573.84
2024-04-06T18:23:46.874Z,97576.45
2024-04-06T18:26:14.781Z,97582.45
2024-04-06T18:28:42.769Z,97584.50
2024-04-06T18:31:11.069Z,97585.48
2024-04-06T18:33:42.000Z,97588.94
2024-04-06T18:36:09.729Z,97588.58
2024-04-06T18:38:37.613Z,97584.42
2024-04-06T18:41:05.362Z,97580.05
2024-04-06T18:43:33.315Z,97584.06
2024-04-06T18:46:01.124Z,97581.50
2024-04-06T18:48:29.248Z,97580.56
2024-04-06T18:50:57.656Z,97575.31
2024-04-06T18:53:25.529Z,97576.42
2024-04-06T18:55:53.343Z,97574.04
2024-04-06T18:58:21.424Z,97569.95
2024-04-06T19:00:49.299Z,97569.54
2024-04-06T19:03:17.658Z,97571.45
2024-04-06T19:05:45.547Z,97568.44
2024-04-06T19:08:13.421Z,97568.16
2024-04-06T19:10:41.377Z,97564.83
2024-04-06T19:13:09.382Z,97568.25
2024-04-06T19:15:37.447Z,97573.50
2024-04-06T19:18:05.555Z,97575.83
2024-04-06T19:20:34.105Z,97585.36
2024-04-06T19:23:02.434Z,97587.98
2024-04-06T19:25:30.492Z,97582.73
2024-04-06T19:27:58.294Z,97583.05
2024-04-06T19:30:26.148Z,97585.58
2024-04-06T19:32:54.420Z,97589.76
2024-04-06T19:35:22.480Z,97590.42
2024-04-06T19:37:50.228Z,97588.31
2024-04-06T19:40:18.144Z,97585.89
2024-04-06T19:42:45.930Z,97583.63
2024-04-06T19:45:13.731Z,97579.61
2024-04-06T19:47:41.760Z,97575.56
2024-04-06T19:50:09.704Z,97571.71
2024-04-06T19:52:37.762Z,97572.77
2024-04-06T19:55:05.838Z,97573.06
2024-04-06T19:57:34.132Z,97577.63
2024-04-06T20:00:02.392Z,97578.38
2024-04-06T20:02:30.363Z,97579.85
2024-04-06T20:04:58.211Z,97579.80
2024-04-06T20:07:25.957Z,97581.48
2024-04-06T20:09:53.751Z,97579.34
2024-04-06T20:12:21.793Z,97580.48
2024-04-06T20:14:52.584Z,97584.27
2024-04-06T20:17:20.573Z,97587.30
2024-04-06T20:19:48.920Z,97592.08
2024-04-06T20:22:35.950Z,97596.15
2024-04-06T20:25:22.427Z,97602.86
2024-04-06T20:27:50.319Z,97608.73
2024-04-06T20:30:18.071Z,97610.47
2024-04-06T20:32:45.987Z,97610.77
2024-04-06T20:35:13.777Z,97610.42
2024-04-06T20:37:41.700Z,97608.69
2024-04-06T20:40:11.238Z,97611.49
2024-04-06T20:42:40.347Z,97612.40
2024-04-06T20:45:09.263Z,97615.34
2024-04-06T20:47:36.994Z,97617.52
2024-04-06T20:50:05.606Z,97615.03
2024-04-06T20:52:34.901Z,97609.94
2024-04-06T20:55:02.780Z,97615.25
2024-04-06T20:57:30.672Z,97616.23
2024-04-06T20:59:58.856Z,97616.42
2024-04-06T21:02:26.808Z,97620.87
2024-04-06T21:04:54.575Z,97623.87
2024-04-06T21:07:22.652Z,97623.48
2024-04-06T21:09:50.575Z,97626.51
2024-04-06T21:12:18.672Z,97629.33
2024-04-06T21:14:46.753Z,97631.77
2024-04-06T21:17:14.736Z,97631.02
2024-04-06T21:19:42.526Z,97626.91
2024-04-06T21:22:10.411Z,97624.03
2024-04-06T21:24:38.343Z,97624.62
2024-04-06T21:27:06.173Z,97622.42
2024-04-06T21:29:34.011Z,97625.65
2024-04-06T21:32:01.824Z,97630.55
2024-04-06T21:34:29.670Z,97628.05
2024-04-06T21:36:57.526Z,97624.89
2024-04-06T21:39:25.757Z,97621.20
2024-04-06T21:41:53.650Z,97618.16
2024-04-06T21:44:21.433Z,97618.37
2024-04-06T21:46:49.132Z,97620.21
2024-04-06T21:49:17.049Z,97624.71
2024-04-06T21:51:44.830Z,97622.30
2024-04-06T21:54:12.653Z,97627.27
2024-04-06T21:56:40.425Z,97621.97
2024-04-06T21:59:08.668Z,97620.33
2024-04-06T22:01:37.254Z,97621.12
2024-04-06T22:04:05.555Z,97621.52
2024-04-06T22:06:33.312Z,97617.90
2024-04-06T22:09:01.093Z,97616.66
2024-04-06T22:11:29.914Z,97616.31
2024-04-06T22:13:57.817Z,97621.25
2024-04-06T22:16:25.603Z,97620.36
2024-04-06T22:18:53.504Z,97620.73
2024-04-06T22:21:21.332Z,97623.36
2024-04-06T22:23:49.198Z,97621.50
2024-04-06T22:26:17.011Z,97622.84
2024-04-06T22:28:44.796Z,97622.14
2024-04-06T22:31:14.074Z,97612.41
2024-04-06T22:33:42.392Z,97612.21
2024-04-06T22:36:10.256Z,97608.23
2024-04-06T22:38:38.117Z,97605.78
2024-04-06T22:41:06.942Z,97599.38
2024-04-06T22:43:34.878Z,97602.06
2024-04-06T22:46:02.981Z,97605.41
2024-04-06T22:48:31.237Z,97608.84
2024-04-06T22:50:59.131Z,97608.58
2024-04-06T22:53:27.027Z,97611.12
2024-04-06T22:55:54.824Z,97612.14
2024-04-06T22:58:22.730Z,97614.92
2024-04-06T23:00:50.542Z,97617.27
2024-04-06T23:03:18.288Z,97617.86
2024-04-06T23:05:46.046Z,97619.70
2024-04-06T23:08:13.825Z,97618.60
2024-04-06T23:10:42.382Z,97612.72
2024-04-06T23:13:10.213Z,97609.25
2024-04-06T23:15:38.262Z,97607.31
2024-04-06T23:18:06.019Z,97602.19
2024-04-06T23:20:35.163Z,97600.75
2024-04-06T23:23:03.292Z,97602.83
2024-04-06T23:25:31.218Z,97601.94
2024-04-06T23:27:59.255Z,97599.09
2024-04-06T23:30:27.042Z,97597.36
2024-04-06T23:32:54.904Z,97601.70
2024-04-06T23:35:22.873Z,97602.70
2024-04-06T23:37:52.341Z,97604.02
2024-04-06T23:40:22.121Z,97605.39
2024-04-06T23:42:49.922Z,97606.37
2024-04-06T23:45:17.697Z,97608.67
2024-04-06T23:47:45.488Z,97607.11
2024-04-06T23:50:13.261Z,97605.35
2024-04-06T23:52:41.058Z,97607.96
2024-04-06T23:55:09.462Z,97605.34
2024-04-06T23:57:37.195Z,97608.63
